sensor_id;sensor_type;location;lat;lon;timestamp;P1;durP1;ratioP1;P2;durP2;ratioP2
21513;SDS011;10918;48.102;11.636;2023-02-23T00:00:10;12.20;;;9.32;;
21513;SDS011;10918;48.102;11.636;2023-02-23T00:02:47;12.95;;;9.57;;
21513;SDS011;10918;48.102;11.636;2023-02-23T00:05:14;15.65;;;9.45;;
21513;SDS011;10918;48.102;11.636;2023-02-23T00:07:43;10.18;;;8.60;;
21513;SDS011;10918;48.102;11.636;2023-02-23T00:10:10;11.98;;;8.98;;
21513;SDS011;10918;48.102;11.636;2023-02-23T00:12:36;12.88;;;9.15;;
21513;SDS011;10918;48.102;11.636;2023-02-23T00:15:03;13.30;;;8.70;;
21513;SDS011;10918;48.102;11.636;2023-02-23T00:17:29;11.30;;;8.85;;
21513;SDS011;10918;48.102;11.636;2023-02-23T00:19:57;13.50;;;9.13;;
21513;SDS011;10918;48.102;11.636;2023-02-23T00:22:24;13.95;;;8.68;;
21513;SDS011;10918;48.102;11.636;2023-02-23T00:24:51;13.05;;;8.40;;
21513;SDS011;10918;48.102;11.636;2023-02-23T00:27:17;11.55;;;9.10;;
21513;SDS011;10918;48.102;11.636;2023-02-23T00:29:44;13.20;;;9.32;;
21513;SDS011;10918;48.102;11.636;2023-02-23T00:32:13;12.77;;;9.48;;
21513;SDS011;10918;48.102;11.636;2023-02-23T00:34:43;14.25;;;9.40;;
21513;SDS011;10918;48.102;11.636;2023-02-23T00:37:09;13.48;;;9.68;;
21513;SDS011;10918;48.102;11.636;2023-02-23T00:39:36;14.65;;;10.07;;
21513;SDS011;10918;48.102;11.636;2023-02-23T00:42:02;14.00;;;9.10;;
21513;SDS011;10918;48.102;11.636;2023-02-23T00:44:30;13.63;;;9.63;;
21513;SDS011;10918;48.102;11.636;2023-02-23T00:46:57;13.73;;;9.55;;
21513;SDS011;10918;48.102;11.636;2023-02-23T00:49:24;13.38;;;9.55;;
21513;SDS011;10918;48.102;11.636;2023-02-23T00:51:51;15.20;;;10.30;;
21513;SDS011;10918;48.102;11.636;2023-02-23T00:54:17;13.70;;;9.38;;
21513;SDS011;10918;48.102;11.636;2023-02-23T00:56:44;15.02;;;9.98;;
21513;SDS011;10918;48.102;11.636;2023-02-23T00:59:10;16.30;;;10.40;;
21513;SDS011;10918;48.102;11.636;2023-02-23T01:01:37;13.80;;;9.52;;
21513;SDS011;10918;48.102;11.636;2023-02-23T01:04:05;12.73;;;9.10;;
21513;SDS011;10918;48.102;11.636;2023-02-23T01:06:31;13.57;;;9.70;;
21513;SDS011;10918;48.102;11.636;2023-02-23T01:08:58;11.30;;;8.88;;
21513;SDS011;10918;48.102;11.636;2023-02-23T01:11:29;13.95;;;9.20;;
21513;SDS011;10918;48.102;11.636;2023-02-23T01:13:56;14.60;;;10.35;;
21513;SDS011;10918;48.102;11.636;2023-02-23T01:16:24;15.95;;;11.05;;
21513;SDS011;10918;48.102;11.636;2023-02-23T01:18:52;17.40;;;11.02;;
21513;SDS011;10918;48.102;11.636;2023-02-23T01:21:20;13.73;;;9.50;;
21513;SDS011;10918;48.102;11.636;2023-02-23T01:23:47;14.05;;;10.18;;
21513;SDS011;10918;48.102;11.636;2023-02-23T01:26:15;12.13;;;9.63;;
21513;SDS011;10918;48.102;11.636;2023-02-23T01:28:43;13.82;;;9.88;;
21513;SDS011;10918;48.102;11.636;2023-02-23T01:31:09;15.60;;;9.52;;
21513;SDS011;10918;48.102;11.636;2023-02-23T01:33:35;15.93;;;9.80;;
21513;SDS011;10918;48.102;11.636;2023-02-23T01:36:01;16.27;;;10.93;;
21513;SDS011;10918;48.102;11.636;2023-02-23T01:38:27;16.67;;;10.98;;
21513;SDS011;10918;48.102;11.636;2023-02-23T01:40:53;12.07;;;9.63;;
21513;SDS011;10918;48.102;11.636;2023-02-23T01:43:19;13.05;;;9.60;;
21513;SDS011;10918;48.102;11.636;2023-02-23T01:45:50;14.40;;;10.68;;
21513;SDS011;10918;48.102;11.636;2023-02-23T01:48:17;15.15;;;10.35;;
21513;SDS011;10918;48.102;11.636;2023-02-23T01:53:59;13.40;;;10.13;;
21513;SDS011;10918;48.102;11.636;2023-02-23T01:56:33;13.55;;;9.75;;
21513;SDS011;10918;48.102;11.636;2023-02-23T01:59:02;23.52;;;15.38;;
21513;SDS011;10918;48.102;11.636;2023-02-23T02:01:29;15.30;;;10.57;;
21513;SDS011;10918;48.102;11.636;2023-02-23T02:03:57;14.77;;;10.70;;
21513;SDS011;10918;48.102;11.636;2023-02-23T02:06:24;12.90;;;10.32;;
21513;SDS011;10918;48.102;11.636;2023-02-23T02:08:53;17.95;;;10.90;;
21513;SDS011;10918;48.102;11.636;2023-02-23T02:11:21;16.85;;;11.93;;
21513;SDS011;10918;48.102;11.636;2023-02-23T02:13:58;17.08;;;11.82;;
21513;SDS011;10918;48.102;11.636;2023-02-23T02:35:18;15.40;;;11.32;;
21513;SDS011;10918;48.102;11.636;2023-02-23T02:37:53;15.80;;;11.48;;
21513;SDS011;10918;48.102;11.636;2023-02-23T02:40:27;15.07;;;11.27;;
21513;SDS011;10918;48.102;11.636;2023-02-23T02:43:00;19.40;;;11.85;;
21513;SDS011;10918;48.102;11.636;2023-02-23T02:45:56;17.92;;;11.63;;
21513;SDS011;10918;48.102;11.636;2023-02-23T02:48:23;15.57;;;11.23;;
21513;SDS011;10918;48.102;11.636;2023-02-23T02:56:08;16.63;;;11.50;;
21513;SDS011;10918;48.102;11.636;2023-02-23T02:58:35;16.00;;;12.20;;
21513;SDS011;10918;48.102;11.636;2023-02-23T03:01:07;19.88;;;13.00;;
21513;SDS011;10918;48.102;11.636;2023-02-23T03:03:52;19.05;;;11.70;;
21513;SDS011;10918;48.102;11.636;2023-02-23T03:06:44;17.23;;;12.18;;
21513;SDS011;10918;48.102;11.636;2023-02-23T03:12:34;19.02;;;10.98;;
21513;SDS011;10918;48.102;11.636;2023-02-23T03:15:33;16.80;;;11.35;;
21513;SDS011;10918;48.102;11.636;2023-02-23T03:18:33;16.05;;;11.82;;
21513;SDS011;10918;48.102;11.636;2023-02-23T03:21:30;15.95;;;11.50;;
21513;SDS011;10918;48.102;11.636;2023-02-23T03:24:50;18.23;;;12.10;;
21513;SDS011;10918;48.102;11.636;2023-02-23T03:27:36;17.23;;;12.18;;
21513;SDS011;10918;48.102;11.636;2023-02-23T03:30:28;14.18;;;11.25;;
21513;SDS011;10918;48.102;11.636;2023-02-23T03:33:16;17.25;;;12.38;;
21513;SDS011;10918;48.102;11.636;2023-02-23T03:36:11;15.27;;;11.63;;
21513;SDS011;10918;48.102;11.636;2023-02-23T03:41:44;15.50;;;11.85;;
21513;SDS011;10918;48.102;11.636;2023-02-23T03:44:31;17.02;;;11.43;;
21513;SDS011;10918;48.102;11.636;2023-02-23T03:47:17;15.60;;;11.82;;
21513;SDS011;10918;48.102;11.636;2023-02-23T03:50:06;15.65;;;10.90;;
21513;SDS011;10918;48.102;11.636;2023-02-23T03:52:53;14.40;;;11.35;;
21513;SDS011;10918;48.102;11.636;2023-02-23T03:55:41;18.45;;;12.18;;
21513;SDS011;10918;48.102;11.636;2023-02-23T03:58:31;15.27;;;11.43;;
21513;SDS011;10918;48.102;11.636;2023-02-23T04:01:17;16.17;;;11.55;;
21513;SDS011;10918;48.102;11.636;2023-02-23T04:04:03;17.88;;;12.13;;
21513;SDS011;10918;48.102;11.636;2023-02-23T04:06:50;18.10;;;12.88;;
21513;SDS011;10918;48.102;11.636;2023-02-23T04:09:37;16.73;;;11.95;;
21513;SDS011;10918;48.102;11.636;2023-02-23T04:12:28;17.75;;;12.30;;
21513;SDS011;10918;48.102;11.636;2023-02-23T04:15:25;17.90;;;11.98;;
21513;SDS011;10918;48.102;11.636;2023-02-23T04:17:52;18.15;;;12.63;;
21513;SDS011;10918;48.102;11.636;2023-02-23T04:20:19;14.82;;;11.18;;
21513;SDS011;10918;48.102;11.636;2023-02-23T04:22:45;19.13;;;11.70;;
21513;SDS011;10918;48.102;11.636;2023-02-23T04:25:12;17.23;;;12.27;;
21513;SDS011;10918;48.102;11.636;2023-02-23T04:27:38;18.33;;;12.10;;
21513;SDS011;10918;48.102;11.636;2023-02-23T04:30:04;17.58;;;12.20;;
21513;SDS011;10918;48.102;11.636;2023-02-23T04:32:30;17.50;;;12.30;;
21513;SDS011;10918;48.102;11.636;2023-02-23T04:34:56;16.30;;;12.40;;
21513;SDS011;10918;48.102;11.636;2023-02-23T04:37:22;18.00;;;11.98;;
21513;SDS011;10918;48.102;11.636;2023-02-23T04:39:48;17.63;;;12.10;;
21513;SDS011;10918;48.102;11.636;2023-02-23T04:42:15;18.83;;;11.88;;
21513;SDS011;10918;48.102;11.636;2023-02-23T04:44:41;16.95;;;11.98;;
21513;SDS011;10918;48.102;11.636;2023-02-23T04:47:08;18.60;;;13.02;;
21513;SDS011;10918;48.102;11.636;2023-02-23T04:49:34;17.33;;;12.25;;
21513;SDS011;10918;48.102;11.636;2023-02-23T04:52:00;20.73;;;13.13;;
21513;SDS011;10918;48.102;11.636;2023-02-23T04:54:26;18.40;;;12.95;;
21513;SDS011;10918;48.102;11.636;2023-02-23T04:56:52;17.80;;;12.32;;
21513;SDS011;10918;48.102;11.636;2023-02-23T04:59:18;20.42;;;13.07;;
21513;SDS011;10918;48.102;11.636;2023-02-23T05:01:44;19.70;;;13.70;;
21513;SDS011;10918;48.102;11.636;2023-02-23T05:04:10;17.40;;;13.13;;
21513;SDS011;10918;48.102;11.636;2023-02-23T05:06:36;18.02;;;12.93;;
21513;SDS011;10918;48.102;11.636;2023-02-23T05:09:02;18.42;;;12.82;;
21513;SDS011;10918;48.102;11.636;2023-02-23T05:11:30;17.65;;;12.55;;
21513;SDS011;10918;48.102;11.636;2023-02-23T05:13:56;18.98;;;12.50;;
21513;SDS011;10918;48.102;11.636;2023-02-23T05:16:22;19.17;;;12.27;;
21513;SDS011;10918;48.102;11.636;2023-02-23T05:18:48;18.58;;;12.98;;
21513;SDS011;10918;48.102;11.636;2023-02-23T05:21:14;16.90;;;11.73;;
21513;SDS011;10918;48.102;11.636;2023-02-23T05:23:40;16.80;;;12.27;;
21513;SDS011;10918;48.102;11.636;2023-02-23T05:26:07;18.98;;;12.63;;
21513;SDS011;10918;48.102;11.636;2023-02-23T05:28:34;18.77;;;13.18;;
21513;SDS011;10918;48.102;11.636;2023-02-23T05:31:00;18.15;;;13.27;;
21513;SDS011;10918;48.102;11.636;2023-02-23T05:33:27;18.15;;;13.02;;
21513;SDS011;10918;48.102;11.636;2023-02-23T05:35:53;16.77;;;11.93;;
21513;SDS011;10918;48.102;11.636;2023-02-23T05:38:19;18.83;;;12.68;;
21513;SDS011;10918;48.102;11.636;2023-02-23T05:40:46;17.40;;;12.80;;
21513;SDS011;10918;48.102;11.636;2023-02-23T05:43:12;18.42;;;12.98;;
21513;SDS011;10918;48.102;11.636;2023-02-23T05:45:41;15.88;;;11.75;;
21513;SDS011;10918;48.102;11.636;2023-02-23T05:48:07;19.42;;;13.55;;
21513;SDS011;10918;48.102;11.636;2023-02-23T05:50:34;16.23;;;12.05;;
21513;SDS011;10918;48.102;11.636;2023-02-23T05:53:00;17.30;;;12.77;;
21513;SDS011;10918;48.102;11.636;2023-02-23T05:55:26;19.67;;;12.95;;
21513;SDS011;10918;48.102;11.636;2023-02-23T05:57:52;16.60;;;12.13;;
21513;SDS011;10918;48.102;11.636;2023-02-23T06:00:18;17.67;;;12.75;;
21513;SDS011;10918;48.102;11.636;2023-02-23T06:02:45;18.80;;;12.82;;
21513;SDS011;10918;48.102;11.636;2023-02-23T06:05:11;19.48;;;13.68;;
21513;SDS011;10918;48.102;11.636;2023-02-23T06:07:38;19.23;;;13.77;;
21513;SDS011;10918;48.102;11.636;2023-02-23T06:10:04;17.63;;;12.70;;
21513;SDS011;10918;48.102;11.636;2023-02-23T06:12:30;20.65;;;13.25;;
21513;SDS011;10918;48.102;11.636;2023-02-23T06:14:56;17.60;;;12.85;;
21513;SDS011;10918;48.102;11.636;2023-02-23T06:17:23;18.60;;;13.02;;
21513;SDS011;10918;48.102;11.636;2023-02-23T06:19:49;18.40;;;13.30;;
21513;SDS011;10918;48.102;11.636;2023-02-23T06:22:15;19.73;;;13.57;;
21513;SDS011;10918;48.102;11.636;2023-02-23T06:24:44;19.17;;;13.20;;
21513;SDS011;10918;48.102;11.636;2023-02-23T06:27:10;18.92;;;13.43;;
21513;SDS011;10918;48.102;11.636;2023-02-23T06:29:37;18.75;;;12.43;;
21513;SDS011;10918;48.102;11.636;2023-02-23T06:32:03;17.98;;;12.93;;
21513;SDS011;10918;48.102;11.636;2023-02-23T06:34:29;19.30;;;14.15;;
21513;SDS011;10918;48.102;11.636;2023-02-23T06:36:55;21.30;;;13.98;;
21513;SDS011;10918;48.102;11.636;2023-02-23T06:39:21;18.63;;;13.43;;
21513;SDS011;10918;48.102;11.636;2023-02-23T06:41:47;19.20;;;13.95;;
21513;SDS011;10918;48.102;11.636;2023-02-23T06:44:14;16.20;;;12.80;;
21513;SDS011;10918;48.102;11.636;2023-02-23T06:46:39;16.27;;;11.82;;
21513;SDS011;10918;48.102;11.636;2023-02-23T06:49:05;17.92;;;12.68;;
21513;SDS011;10918;48.102;11.636;2023-02-23T06:51:31;18.67;;;11.73;;
21513;SDS011;10918;48.102;11.636;2023-02-23T06:53:57;20.92;;;13.23;;
21513;SDS011;10918;48.102;11.636;2023-02-23T06:56:23;19.90;;;12.07;;
21513;SDS011;10918;48.102;11.636;2023-02-23T06:58:49;18.08;;;12.18;;
21513;SDS011;10918;48.102;11.636;2023-02-23T07:01:15;17.40;;;11.63;;
21513;SDS011;10918;48.102;11.636;2023-02-23T07:03:43;17.88;;;12.60;;
21513;SDS011;10918;48.102;11.636;2023-02-23T07:06:09;18.38;;;12.18;;
21513;SDS011;10918;48.102;11.636;2023-02-23T07:08:35;19.23;;;11.88;;
21513;SDS011;10918;48.102;11.636;2023-02-23T07:11:11;17.75;;;12.15;;
21513;SDS011;10918;48.102;11.636;2023-02-23T07:13:38;17.90;;;12.18;;
21513;SDS011;10918;48.102;11.636;2023-02-23T07:16:04;18.92;;;12.60;;
21513;SDS011;10918;48.102;11.636;2023-02-23T07:18:31;17.65;;;12.20;;
21513;SDS011;10918;48.102;11.636;2023-02-23T07:20:57;17.73;;;12.25;;
21513;SDS011;10918;48.102;11.636;2023-02-23T07:23:23;20.80;;;11.50;;
21513;SDS011;10918;48.102;11.636;2023-02-23T07:25:49;17.52;;;11.95;;
21513;SDS011;10918;48.102;11.636;2023-02-23T07:28:15;20.13;;;12.82;;
21513;SDS011;10918;48.102;11.636;2023-02-23T07:30:41;14.73;;;11.50;;
21513;SDS011;10918;48.102;11.636;2023-02-23T07:33:07;18.83;;;12.75;;
21513;SDS011;10918;48.102;11.636;2023-02-23T07:35:33;16.02;;;12.43;;
21513;SDS011;10918;48.102;11.636;2023-02-23T07:37:59;21.02;;;12.27;;
21513;SDS011;10918;48.102;11.636;2023-02-23T07:40:25;16.33;;;11.63;;
21513;SDS011;10918;48.102;11.636;2023-02-23T07:42:51;15.57;;;11.35;;
21513;SDS011;10918;48.102;11.636;2023-02-23T07:45:19;17.88;;;12.23;;
21513;SDS011;10918;48.102;11.636;2023-02-23T07:47:45;22.95;;;16.20;;
21513;SDS011;10918;48.102;11.636;2023-02-23T07:50:11;29.27;;;18.25;;
21513;SDS011;10918;48.102;11.636;2023-02-23T07:52:38;19.33;;;11.63;;
21513;SDS011;10918;48.102;11.636;2023-02-23T07:55:05;19.52;;;11.68;;
21513;SDS011;10918;48.102;11.636;2023-02-23T07:57:32;15.60;;;11.50;;
21513;SDS011;10918;48.102;11.636;2023-02-23T07:59:58;16.20;;;11.68;;
21513;SDS011;10918;48.102;11.636;2023-02-23T08:02:24;15.57;;;11.45;;
21513;SDS011;10918;48.102;11.636;2023-02-23T08:04:50;17.60;;;10.95;;
21513;SDS011;10918;48.102;11.636;2023-02-23T08:07:18;17.88;;;12.02;;
21513;SDS011;10918;48.102;11.636;2023-02-23T08:09:44;17.25;;;11.73;;
21513;SDS011;10918;48.102;11.636;2023-02-23T08:12:10;16.95;;;11.82;;
21513;SDS011;10918;48.102;11.636;2023-02-23T08:14:36;24.20;;;16.67;;
21513;SDS011;10918;48.102;11.636;2023-02-23T08:17:02;18.88;;;12.75;;
21513;SDS011;10918;48.102;11.636;2023-02-23T08:19:28;16.60;;;11.48;;
21513;SDS011;10918;48.102;11.636;2023-02-23T08:21:54;21.52;;;10.82;;
21513;SDS011;10918;48.102;11.636;2023-02-23T08:24:21;15.93;;;11.27;;
21513;SDS011;10918;48.102;11.636;2023-02-23T08:26:47;20.67;;;12.38;;
21513;SDS011;10918;48.102;11.636;2023-02-23T08:29:14;18.92;;;11.75;;
21513;SDS011;10918;48.102;11.636;2023-02-23T08:31:40;14.15;;;10.13;;
21513;SDS011;10918;48.102;11.636;2023-02-23T08:34:06;15.68;;;11.52;;
21513;SDS011;10918;48.102;11.636;2023-02-23T08:36:32;15.73;;;11.07;;
21513;SDS011;10918;48.102;11.636;2023-02-23T08:38:58;17.25;;;12.10;;
21513;SDS011;10918;48.102;11.636;2023-02-23T08:41:24;19.65;;;10.93;;
21513;SDS011;10918;48.102;11.636;2023-02-23T08:43:51;15.30;;;10.73;;
21513;SDS011;10918;48.102;11.636;2023-02-23T08:46:17;16.17;;;12.23;;
21513;SDS011;10918;48.102;11.636;2023-02-23T08:48:44;17.50;;;11.57;;
21513;SDS011;10918;48.102;11.636;2023-02-23T08:51:11;17.90;;;11.18;;
21513;SDS011;10918;48.102;11.636;2023-02-23T08:53:38;16.63;;;10.93;;
21513;SDS011;10918;48.102;11.636;2023-02-23T08:56:05;20.00;;;13.80;;
21513;SDS011;10918;48.102;11.636;2023-02-23T08:58:32;20.85;;;12.38;;
21513;SDS011;10918;48.102;11.636;2023-02-23T09:00:58;19.50;;;11.85;;
21513;SDS011;10918;48.102;11.636;2023-02-23T09:03:24;16.50;;;12.20;;
21513;SDS011;10918;48.102;11.636;2023-02-23T09:05:52;18.80;;;11.70;;
21513;SDS011;10918;48.102;11.636;2023-02-23T09:08:18;14.73;;;10.98;;
21513;SDS011;10918;48.102;11.636;2023-02-23T09:10:44;14.48;;;10.90;;
21513;SDS011;10918;48.102;11.636;2023-02-23T09:13:10;17.20;;;10.57;;
21513;SDS011;10918;48.102;11.636;2023-02-23T09:15:39;16.20;;;10.48;;
21513;SDS011;10918;48.102;11.636;2023-02-23T09:18:06;14.48;;;10.60;;
21513;SDS011;10918;48.102;11.636;2023-02-23T09:20:32;13.10;;;10.15;;
21513;SDS011;10918;48.102;11.636;2023-02-23T09:22:58;15.90;;;11.77;;
21513;SDS011;10918;48.102;11.636;2023-02-23T09:25:24;16.73;;;10.93;;
21513;SDS011;10918;48.102;11.636;2023-02-23T09:27:51;14.35;;;10.63;;
21513;SDS011;10918;48.102;11.636;2023-02-23T09:30:18;11.50;;;9.73;;
21513;SDS011;10918;48.102;11.636;2023-02-23T09:32:45;13.82;;;10.88;;
21513;SDS011;10918;48.102;11.636;2023-02-23T09:35:12;12.27;;;9.50;;
21513;SDS011;10918;48.102;11.636;2023-02-23T09:37:41;16.95;;;11.18;;
21513;SDS011;10918;48.102;11.636;2023-02-23T09:40:13;12.85;;;10.10;;
21513;SDS011;10918;48.102;11.636;2023-02-23T09:42:44;15.40;;;10.75;;
21513;SDS011;10918;48.102;11.636;2023-02-23T09:47:57;12.15;;;9.52;;
21513;SDS011;10918;48.102;11.636;2023-02-23T09:50:27;14.65;;;10.00;;
21513;SDS011;10918;48.102;11.636;2023-02-23T09:52:58;13.88;;;9.75;;
21513;SDS011;10918;48.102;11.636;2023-02-23T09:55:26;11.90;;;8.38;;
21513;SDS011;10918;48.102;11.636;2023-02-23T09:57:52;13.40;;;8.45;;
21513;SDS011;10918;48.102;11.636;2023-02-23T10:02:50;11.85;;;8.48;;
21513;SDS011;10918;48.102;11.636;2023-02-23T10:05:20;12.98;;;8.50;;
21513;SDS011;10918;48.102;11.636;2023-02-23T10:07:53;10.95;;;8.23;;
21513;SDS011;10918;48.102;11.636;2023-02-23T10:10:34;10.70;;;8.40;;
21513;SDS011;10918;48.102;11.636;2023-02-23T10:15:46;14.20;;;8.10;;
21513;SDS011;10918;48.102;11.636;2023-02-23T10:18:17;12.70;;;9.00;;
21513;SDS011;10918;48.102;11.636;2023-02-23T10:21:04;13.50;;;8.15;;
21513;SDS011;10918;48.102;11.636;2023-02-23T10:23:35;11.90;;;8.52;;
21513;SDS011;10918;48.102;11.636;2023-02-23T10:26:03;9.63;;;7.45;;
21513;SDS011;10918;48.102;11.636;2023-02-23T10:28:33;10.82;;;7.95;;
21513;SDS011;10918;48.102;11.636;2023-02-23T10:30:59;13.48;;;8.48;;
21513;SDS011;10918;48.102;11.636;2023-02-23T10:33:32;11.88;;;7.75;;
21513;SDS011;10918;48.102;11.636;2023-02-23T10:36:10;9.70;;;7.15;;
21513;SDS011;10918;48.102;11.636;2023-02-23T10:38:38;11.95;;;6.88;;
21513;SDS011;10918;48.102;11.636;2023-02-23T10:41:04;10.40;;;7.55;;
21513;SDS011;10918;48.102;11.636;2023-02-23T10:43:31;10.85;;;6.63;;
21513;SDS011;10918;48.102;11.636;2023-02-23T10:45:57;10.75;;;7.10;;
21513;SDS011;10918;48.102;11.636;2023-02-23T10:48:25;10.07;;;7.30;;
21513;SDS011;10918;48.102;11.636;2023-02-23T10:50:52;14.90;;;10.95;;
21513;SDS011;10918;48.102;11.636;2023-02-23T10:53:23;20.98;;;17.00;;
21513;SDS011;10918;48.102;11.636;2023-02-23T10:56:09;9.90;;;7.80;;
21513;SDS011;10918;48.102;11.636;2023-02-23T10:58:38;10.05;;;6.35;;
21513;SDS011;10918;48.102;11.636;2023-02-23T11:01:05;8.70;;;6.65;;
21513;SDS011;10918;48.102;11.636;2023-02-23T11:05:57;10.13;;;6.63;;
21513;SDS011;10918;48.102;11.636;2023-02-23T11:08:27;10.15;;;6.43;;
21513;SDS011;10918;48.102;11.636;2023-02-23T11:10:56;14.07;;;11.57;;
21513;SDS011;10918;48.102;11.636;2023-02-23T11:13:23;14.10;;;11.95;;
21513;SDS011;10918;48.102;11.636;2023-02-23T11:15:57;8.23;;;5.72;;
21513;SDS011;10918;48.102;11.636;2023-02-23T11:18:23;8.50;;;6.55;;
21513;SDS011;10918;48.102;11.636;2023-02-23T11:20:50;9.35;;;6.32;;
21513;SDS011;10918;48.102;11.636;2023-02-23T11:23:29;9.55;;;5.30;;
21513;SDS011;10918;48.102;11.636;2023-02-23T11:25:57;9.52;;;5.65;;
21513;SDS011;10918;48.102;11.636;2023-02-23T11:30:54;8.07;;;5.95;;
21513;SDS011;10918;48.102;11.636;2023-02-23T11:33:22;7.55;;;5.47;;
21513;SDS011;10918;48.102;11.636;2023-02-23T11:35:58;11.18;;;5.95;;
21513;SDS011;10918;48.102;11.636;2023-02-23T11:38:25;9.27;;;5.47;;
21513;SDS011;10918;48.102;11.636;2023-02-23T11:41:02;6.65;;;5.18;;
21513;SDS011;10918;48.102;11.636;2023-02-23T11:43:28;6.35;;;5.65;;
21513;SDS011;10918;48.102;11.636;2023-02-23T11:45:55;9.82;;;5.40;;
21513;SDS011;10918;48.102;11.636;2023-02-23T11:48:32;7.40;;;5.43;;
21513;SDS011;10918;48.102;11.636;2023-02-23T11:50:58;7.28;;;4.60;;
21513;SDS011;10918;48.102;11.636;2023-02-23T11:55:52;7.40;;;5.18;;
21513;SDS011;10918;48.102;11.636;2023-02-23T12:00:59;8.25;;;4.85;;
21513;SDS011;10918;48.102;11.636;2023-02-23T12:03:26;7.72;;;4.32;;
21513;SDS011;10918;48.102;11.636;2023-02-23T12:05:54;5.47;;;3.75;;
21513;SDS011;10918;48.102;11.636;2023-02-23T12:08:30;4.38;;;3.60;;
21513;SDS011;10918;48.102;11.636;2023-02-23T12:10:58;5.00;;;3.70;;
21513;SDS011;10918;48.102;11.636;2023-02-23T12:13:29;5.72;;;3.85;;
21513;SDS011;10918;48.102;11.636;2023-02-23T12:21:31;6.78;;;4.30;;
21513;SDS011;10918;48.102;11.636;2023-02-23T12:26:28;6.28;;;4.30;;
21513;SDS011;10918;48.102;11.636;2023-02-23T12:28:56;6.10;;;4.70;;
21513;SDS011;10918;48.102;11.636;2023-02-23T12:31:43;9.02;;;4.97;;
21513;SDS011;10918;48.102;11.636;2023-02-23T12:34:12;4.72;;;3.40;;
21513;SDS011;10918;48.102;11.636;2023-02-23T12:36:41;3.30;;;3.00;;
21513;SDS011;10918;48.102;11.636;2023-02-23T12:39:23;4.20;;;2.88;;
21513;SDS011;10918;48.102;11.636;2023-02-23T12:46:58;5.75;;;3.10;;
21513;SDS011;10918;48.102;11.636;2023-02-23T12:49:29;4.78;;;3.47;;
21513;SDS011;10918;48.102;11.636;2023-02-23T12:52:01;6.78;;;4.63;;
21513;SDS011;10918;48.102;11.636;2023-02-23T12:54:32;6.32;;;5.38;;
21513;SDS011;10918;48.102;11.636;2023-02-23T13:02:16;7.90;;;5.53;;
21513;SDS011;10918;48.102;11.636;2023-02-23T13:07:50;6.70;;;5.40;;
21513;SDS011;10918;48.102;11.636;2023-02-23T13:12:54;8.02;;;5.30;;
21513;SDS011;10918;48.102;11.636;2023-02-23T13:15:45;7.80;;;5.50;;
21513;SDS011;10918;48.102;11.636;2023-02-23T13:20:39;5.60;;;4.97;;
21513;SDS011;10918;48.102;11.636;2023-02-23T13:28:26;6.07;;;4.55;;
21513;SDS011;10918;48.102;11.636;2023-02-23T13:30:53;7.82;;;4.55;;
21513;SDS011;10918;48.102;11.636;2023-02-23T13:33:23;8.20;;;4.40;;
21513;SDS011;10918;48.102;11.636;2023-02-23T13:35:50;5.65;;;4.47;;
21513;SDS011;10918;48.102;11.636;2023-02-23T13:38:19;6.10;;;4.75;;
21513;SDS011;10918;48.102;11.636;2023-02-23T13:40:49;7.57;;;4.53;;
21513;SDS011;10918;48.102;11.636;2023-02-23T13:46:00;7.47;;;4.97;;
21513;SDS011;10918;48.102;11.636;2023-02-23T13:51:07;5.78;;;4.25;;
21513;SDS011;10918;48.102;11.636;2023-02-23T13:56:27;7.03;;;3.97;;
21513;SDS011;10918;48.102;11.636;2023-02-23T13:58:54;7.43;;;4.10;;
21513;SDS011;10918;48.102;11.636;2023-02-23T14:01:34;5.97;;;4.30;;
21513;SDS011;10918;48.102;11.636;2023-02-23T14:04:02;7.43;;;4.18;;
21513;SDS011;10918;48.102;11.636;2023-02-23T14:06:29;5.97;;;3.80;;
21513;SDS011;10918;48.102;11.636;2023-02-23T14:09:09;5.05;;;3.70;;
21513;SDS011;10918;48.102;11.636;2023-02-23T14:11:49;9.60;;;3.60;;
21513;SDS011;10918;48.102;11.636;2023-02-23T14:14:49;10.18;;;3.75;;
21513;SDS011;10918;48.102;11.636;2023-02-23T14:19:42;3.72;;;3.33;;
21513;SDS011;10918;48.102;11.636;2023-02-23T14:22:09;4.32;;;2.95;;
21513;SDS011;10918;48.102;11.636;2023-02-23T14:24:37;5.65;;;2.95;;
21513;SDS011;10918;48.102;11.636;2023-02-23T14:27:04;4.65;;;2.97;;
21513;SDS011;10918;48.102;11.636;2023-02-23T14:29:39;4.38;;;2.83;;
21513;SDS011;10918;48.102;11.636;2023-02-23T14:34:57;3.97;;;2.72;;
21513;SDS011;10918;48.102;11.636;2023-02-23T14:37:35;5.72;;;2.47;;
21513;SDS011;10918;48.102;11.636;2023-02-23T14:40:06;5.70;;;2.75;;
21513;SDS011;10918;48.102;11.636;2023-02-23T14:42:35;5.30;;;2.58;;
21513;SDS011;10918;48.102;11.636;2023-02-23T14:45:04;4.43;;;2.30;;
21513;SDS011;10918;48.102;11.636;2023-02-23T14:47:30;3.85;;;2.80;;
21513;SDS011;10918;48.102;11.636;2023-02-23T14:50:05;2.75;;;2.30;;
21513;SDS011;10918;48.102;11.636;2023-02-23T14:52:40;5.03;;;2.88;;
21513;SDS011;10918;48.102;11.636;2023-02-23T14:57:36;4.85;;;2.50;;
21513;SDS011;10918;48.102;11.636;2023-02-23T15:00:06;3.80;;;2.60;;
21513;SDS011;10918;48.102;11.636;2023-02-23T15:02:33;6.35;;;2.65;;
21513;SDS011;10918;48.102;11.636;2023-02-23T15:05:12;11.60;;;8.82;;
21513;SDS011;10918;48.102;11.636;2023-02-23T15:07:38;11.52;;;6.40;;
21513;SDS011;10918;48.102;11.636;2023-02-23T15:10:08;3.70;;;2.75;;
21513;SDS011;10918;48.102;11.636;2023-02-23T15:12:35;7.10;;;2.47;;
21513;SDS011;10918;48.102;11.636;2023-02-23T15:15:02;4.13;;;2.00;;
21513;SDS011;10918;48.102;11.636;2023-02-23T15:17:30;3.63;;;2.25;;
21513;SDS011;10918;48.102;11.636;2023-02-23T15:20:04;2.60;;;1.52;;
21513;SDS011;10918;48.102;11.636;2023-02-23T15:22:33;5.00;;;2.00;;
21513;SDS011;10918;48.102;11.636;2023-02-23T15:25:01;3.35;;;1.77;;
21513;SDS011;10918;48.102;11.636;2023-02-23T15:27:29;4.18;;;2.25;;
21513;SDS011;10918;48.102;11.636;2023-02-23T15:29:55;4.15;;;2.05;;
21513;SDS011;10918;48.102;11.636;2023-02-23T15:32:22;3.75;;;2.10;;
21513;SDS011;10918;48.102;11.636;2023-02-23T15:34:52;4.18;;;2.20;;
21513;SDS011;10918;48.102;11.636;2023-02-23T15:37:25;3.92;;;1.92;;
21513;SDS011;10918;48.102;11.636;2023-02-23T15:40:04;4.30;;;2.10;;
21513;SDS011;10918;48.102;11.636;2023-02-23T15:42:34;6.38;;;4.07;;
21513;SDS011;10918;48.102;11.636;2023-02-23T15:45:02;4.78;;;3.53;;
21513;SDS011;10918;48.102;11.636;2023-02-23T15:47:32;4.88;;;1.90;;
21513;SDS011;10918;48.102;11.636;2023-02-23T15:50:00;3.38;;;1.58;;
21513;SDS011;10918;48.102;11.636;2023-02-23T15:52:29;5.80;;;2.17;;
21513;SDS011;10918;48.102;11.636;2023-02-23T15:55:08;3.20;;;2.42;;
21513;SDS011;10918;48.102;11.636;2023-02-23T15:57:51;3.95;;;2.33;;
21513;SDS011;10918;48.102;11.636;2023-02-23T16:00:24;2.58;;;1.90;;
21513;SDS011;10918;48.102;11.636;2023-02-23T16:02:56;3.25;;;2.20;;
21513;SDS011;10918;48.102;11.636;2023-02-23T16:05:23;4.00;;;2.53;;
21513;SDS011;10918;48.102;11.636;2023-02-23T16:08:00;3.03;;;2.22;;
21513;SDS011;10918;48.102;11.636;2023-02-23T16:10:30;3.38;;;2.40;;
21513;SDS011;10918;48.102;11.636;2023-02-23T16:13:03;4.93;;;3.17;;